createdAt,value
2017-12-11T00:01:34.734Z,1.85
2017-12-11T00:04:02.325Z,4.05
2017-12-11T00:06:29.875Z,2.17
2017-12-11T00:08:57.446Z,1.12
2017-12-11T00:11:25.029Z,1.40
2017-12-11T00:13:52.600Z,1.23
2017-12-11T00:16:20.947Z,1.50
2017-12-11T00:18:48.493Z,1.65
2017-12-11T00:21:16.075Z,1.58
2017-12-11T00:23:43.637Z,4.35
2017-12-11T00:26:11.206Z,2.80
2017-12-11T00:28:38.789Z,1.62
2017-12-11T00:31:06.362Z,2.35
2017-12-11T00:33:33.922Z,3.12
2017-12-11T00:36:02.308Z,1.60
2017-12-11T00:38:30.632Z,2.35
2017-12-11T00:40:58.228Z,2.85
2017-12-11T00:43:25.791Z,1.75
2017-12-11T00:45:54.153Z,2.12
2017-12-11T00:48:21.716Z,1.92
2017-12-11T00:50:49.275Z,1.80
2017-12-11T00:53:16.834Z,1.98
2017-12-11T00:55:44.468Z,3.80
2017-12-11T00:58:12.011Z,2.53
2017-12-11T01:00:39.585Z,3.60
2017-12-11T01:03:07.141Z,2.10
2017-12-11T01:05:34.717Z,2.17
2017-12-11T01:08:02.311Z,1.42
2017-12-11T01:10:29.831Z,1.80
2017-12-11T01:12:57.394Z,2.87
2017-12-11T01:15:24.952Z,1.50
2017-12-11T01:17:52.530Z,2.10
2017-12-11T01:20:20.082Z,1.27
2017-12-11T01:22:47.648Z,1.17
2017-12-11T01:25:15.188Z,2.30
2017-12-11T01:27:42.752Z,1.48
2017-12-11T01:30:10.309Z,3.00
2017-12-11T01:32:37.897Z,1.70
2017-12-11T01:35:05.465Z,2.67
2017-12-11T01:37:33.038Z,1.85
2017-12-11T01:40:00.650Z,1.37
2017-12-11T01:42:28.301Z,1.87
2017-12-11T01:44:55.846Z,1.52
2017-12-11T01:47:24.233Z,1.95
2017-12-11T01:49:52.568Z,1.40
2017-12-11T01:52:20.124Z,2.00
2017-12-11T01:54:47.665Z,1.30
2017-12-11T01:57:15.196Z,1.42
2017-12-11T01:59:42.786Z,1.90
2017-12-11T02:02:10.351Z,1.98
2017-12-11T02:04:37.981Z,2.47
2017-12-11T02:07:06.669Z,1.60
2017-12-11T02:09:34.233Z,3.28
2017-12-11T02:12:01.798Z,1.85
2017-12-11T02:14:29.382Z,2.67
2017-12-11T02:16:56.932Z,1.70
2017-12-11T02:19:24.500Z,1.70
2017-12-11T02:21:52.152Z,2.50
2017-12-11T02:24:19.716Z,3.08
2017-12-11T02:26:47.277Z,3.45
2017-12-11T02:29:14.862Z,1.60
2017-12-11T02:31:42.450Z,3.00
2017-12-11T02:34:10.013Z,2.70
2017-12-11T02:36:38.352Z,2.25
2017-12-11T02:39:05.908Z,2.22
2017-12-11T02:41:33.446Z,1.70
2017-12-11T02:44:01.023Z,1.95
2017-12-11T02:46:28.578Z,3.08
2017-12-11T02:48:56.174Z,1.95
2017-12-11T02:51:23.731Z,2.85
2017-12-11T02:53:51.300Z,2.85
2017-12-11T02:56:18.870Z,4.05
2017-12-11T02:58:46.425Z,2.67
2017-12-11T03:01:14.032Z,2.00
2017-12-11T03:03:41.608Z,2.12
2017-12-11T03:06:09.177Z,1.75
2017-12-11T03:08:36.730Z,2.53
2017-12-11T03:11:04.290Z,2.67
2017-12-11T03:13:31.846Z,1.77
2017-12-11T03:15:59.404Z,2.17
2017-12-11T03:18:27.188Z,1.40
2017-12-11T03:20:54.739Z,4.28
2017-12-11T03:23:22.289Z,1.30
2017-12-11T03:25:49.865Z,2.00
2017-12-11T03:28:17.418Z,1.23
2017-12-11T03:30:44.992Z,1.30
2017-12-11T03:33:12.566Z,2.37
2017-12-11T03:35:40.152Z,1.40
2017-12-11T03:38:07.691Z,1.05
2017-12-11T03:40:35.305Z,4.00
2017-12-11T03:43:02.853Z,1.45
2017-12-11T03:45:30.415Z,8.23
2017-12-11T03:47:57.996Z,3.05
2017-12-11T03:50:25.559Z,1.20
2017-12-11T03:52:53.119Z,4.93
2017-12-11T03:55:20.622Z,1.30
2017-12-11T03:57:48.161Z,1.33
2017-12-11T04:00:15.658Z,2.87
2017-12-11T04:02:43.938Z,1.00
2017-12-11T04:05:12.207Z,5.03
2017-12-11T04:07:40.499Z,0.90
2017-12-11T04:10:08.013Z,1.60
2017-12-11T04:12:35.544Z,1.50
2017-12-11T04:15:03.050Z,1.23
2017-12-11T04:17:30.578Z,2.33
2017-12-11T04:19:58.841Z,1.65
2017-12-11T04:22:26.355Z,1.62
2017-12-11T04:24:54.619Z,2.08
2017-12-11T04:27:22.143Z,1.12
2017-12-11T04:29:49.645Z,1.20
2017-12-11T04:32:17.954Z,1.55
2017-12-11T04:34:45.458Z,1.25
2017-12-11T04:37:13.007Z,1.40
2017-12-11T04:39:40.509Z,1.15
2017-12-11T04:42:08.793Z,6.18
2017-12-11T04:44:37.083Z,2.20
2017-12-11T04:47:04.581Z,3.00
2017-12-11T04:49:32.106Z,1.02
2017-12-11T04:51:59.600Z,1.15
2017-12-11T04:54:27.122Z,1.87
2017-12-11T04:56:54.626Z,1.50
2017-12-11T04:59:22.152Z,4.82
2017-12-11T05:01:49.678Z,1.65
2017-12-11T05:04:17.961Z,1.17
2017-12-11T05:06:46.227Z,0.93
2017-12-11T05:09:14.514Z,3.12
2017-12-11T05:11:42.043Z,1.40
2017-12-11T05:14:15.179Z,1.00
2017-12-11T05:16:42.692Z,3.50
2017-12-11T05:19:10.203Z,1.08
2017-12-11T05:21:37.703Z,2.03
2017-12-11T05:24:05.229Z,3.00
2017-12-11T05:26:32.730Z,1.25
2017-12-11T05:29:00.247Z,1.40
2017-12-11T05:31:27.758Z,3.25
2017-12-11T05:33:55.279Z,2.55
2017-12-11T05:36:22.794Z,2.22
2017-12-11T05:38:51.182Z,0.82
2017-12-11T05:41:19.462Z,0.85
2017-12-11T05:43:47.766Z,1.42
2017-12-11T05:46:16.204Z,1.05
2017-12-11T05:48:44.492Z,1.52
2017-12-11T05:51:12.770Z,2.35
2017-12-11T05:53:41.042Z,0.95
2017-12-11T05:56:09.318Z,1.42
2017-12-11T05:58:37.588Z,1.50
2017-12-11T06:01:05.873Z,1.77
2017-12-11T06:03:34.151Z,2.25
2017-12-11T06:06:02.426Z,1.17
2017-12-11T06:08:30.699Z,2.28
2017-12-11T06:10:59.026Z,1.35
2017-12-11T06:13:26.548Z,1.25
2017-12-11T06:15:54.071Z,1.92
2017-12-11T06:18:21.575Z,1.40
2017-12-11T06:20:49.082Z,2.10
2017-12-11T06:23:16.588Z,1.65
2017-12-11T06:25:44.106Z,4.43
2017-12-11T06:28:11.614Z,0.95
2017-12-11T06:30:39.122Z,1.50
2017-12-11T06:33:06.637Z,1.73
2017-12-11T06:35:34.138Z,3.37
2017-12-11T06:38:01.682Z,1.27
2017-12-11T06:40:29.188Z,1.65
2017-12-11T06:42:56.709Z,1.60
2017-12-11T06:45:24.223Z,1.10
2017-12-11T06:47:51.739Z,1.00
2017-12-11T06:50:19.252Z,1.20
2017-12-11T06:52:47.536Z,1.20
2017-12-11T06:55:15.054Z,1.50
2017-12-11T06:57:43.334Z,4.82
2017-12-11T07:00:11.619Z,0.82
2017-12-11T07:02:39.159Z,1.60
2017-12-11T07:05:06.678Z,1.20
2017-12-11T07:07:34.206Z,1.67
2017-12-11T07:10:01.711Z,1.33
2017-12-11T07:12:29.256Z,1.10
2017-12-11T07:14:56.754Z,4.90
2017-12-11T07:17:24.283Z,2.33
2017-12-11T07:19:51.811Z,4.35
2017-12-11T07:22:19.328Z,3.95
2017-12-11T07:24:46.835Z,4.12
2017-12-11T07:27:14.386Z,2.12
2017-12-11T07:29:41.877Z,2.75
2017-12-11T07:32:09.366Z,2.87
2017-12-11T07:34:36.881Z,3.33
2017-12-11T07:37:04.387Z,2.60
2017-12-11T07:39:31.993Z,3.08
2017-12-11T07:41:59.486Z,1.90
2017-12-11T07:44:26.989Z,3.08
2017-12-11T07:46:55.246Z,2.67
2017-12-11T07:49:22.750Z,3.55
2017-12-11T07:51:50.247Z,4.15
2017-12-11T07:54:17.761Z,6.10
2017-12-11T07:56:45.265Z,6.40
2017-12-11T07:59:12.858Z,6.68
2017-12-11T08:01:40.356Z,8.20
2017-12-11T08:04:07.896Z,1.73
2017-12-11T08:06:35.403Z,6.68
2017-12-11T08:09:02.939Z,4.60
2017-12-11T08:11:30.458Z,1.90
2017-12-11T08:13:58.730Z,3.17
2017-12-11T08:16:27.019Z,4.53
2017-12-11T08:18:54.533Z,1.60
2017-12-11T08:21:22.131Z,6.75
2017-12-11T08:23:49.650Z,1.73
2017-12-11T08:26:17.150Z,3.05
2017-12-11T08:28:44.650Z,1.70
2017-12-11T08:31:12.171Z,1.95
2017-12-11T08:33:39.683Z,3.53
2017-12-11T08:36:07.211Z,3.22
2017-12-11T08:38:34.739Z,3.67
2017-12-11T08:41:03.018Z,5.85
2017-12-11T08:43:31.287Z,3.28
2017-12-11T08:45:59.588Z,2.15
2017-12-11T08:48:27.091Z,2.22
2017-12-11T08:50:54.602Z,2.42
2017-12-11T08:53:22.107Z,1.60
2017-12-11T08:55:49.634Z,2.42
2017-12-11T08:58:17.130Z,2.22
2017-12-11T09:00:44.664Z,1.92
2017-12-11T09:03:12.350Z,4.97
2017-12-11T09:05:39.878Z,3.30
2017-12-11T09:08:07.385Z,4.45
2017-12-11T09:10:34.915Z,5.78
2017-12-11T09:13:02.416Z,4.43
2017-12-11T09:15:30.737Z,2.67
2017-12-11T09:17:58.250Z,2.72
2017-12-11T09:20:25.780Z,3.15
2017-12-11T09:22:53.295Z,3.42
2017-12-11T09:25:20.799Z,3.17
2017-12-11T09:27:48.316Z,4.37
2017-12-11T09:30:15.807Z,3.85
2017-12-11T09:32:43.338Z,3.45
2017-12-11T09:35:10.853Z,2.55
2017-12-11T09:37:39.146Z,2.65
2017-12-11T09:40:07.434Z,3.33
2017-12-11T09:42:34.944Z,2.53
2017-12-11T09:45:02.453Z,4.60
2017-12-11T09:47:29.970Z,2.00
2017-12-11T09:49:57.475Z,2.25
2017-12-11T09:52:24.994Z,4.93
2017-12-11T09:54:52.500Z,1.92
2017-12-11T09:57:20.021Z,2.37
2017-12-11T09:59:47.518Z,1.95
2017-12-11T10:02:15.033Z,2.80
2017-12-11T10:04:42.532Z,2.37
2017-12-11T10:07:10.051Z,8.73
2017-12-11T10:09:38.417Z,2.78
2017-12-11T10:12:05.933Z,2.50
2017-12-11T10:14:33.451Z,3.45
2017-12-11T10:17:00.969Z,3.90
2017-12-11T10:19:28.474Z,3.55
2017-12-11T10:21:55.966Z,3.20
2017-12-11T10:24:23.480Z,4.65
2017-12-11T10:26:50.999Z,3.28
2017-12-11T10:29:18.534Z,4.25
2017-12-11T10:31:46.808Z,3.55
2017-12-11T10:34:15.104Z,6.12
2017-12-11T10:36:42.606Z,3.33
2017-12-11T10:39:10.115Z,2.55
2017-12-11T10:41:37.635Z,8.68
2017-12-11T10:44:05.143Z,2.12
2017-12-11T10:46:32.653Z,3.60
2017-12-11T10:49:00.166Z,3.37
2017-12-11T10:51:27.662Z,4.78
2017-12-11T10:53:55.206Z,3.87
2017-12-11T10:56:22.707Z,4.32
2017-12-11T10:58:50.987Z,2.50
2017-12-11T11:01:19.254Z,1.85
2017-12-11T11:03:47.551Z,3.12
2017-12-11T11:06:15.098Z,2.45
2017-12-11T11:08:42.598Z,2.25
2017-12-11T11:11:10.132Z,5.28
2017-12-11T11:13:37.628Z,5.53
2017-12-11T11:16:05.143Z,3.17
2017-12-11T11:18:33.505Z,7.68
2017-12-11T11:21:01.794Z,3.40
2017-12-11T11:23:29.301Z,7.00
2017-12-11T11:25:56.949Z,2.90
2017-12-11T11:28:24.440Z,8.90
2017-12-11T11:30:51.958Z,4.93
2017-12-11T11:33:19.503Z,4.75
2017-12-11T11:35:47.014Z,4.50
2017-12-11T11:38:14.526Z,4.03
2017-12-11T11:40:42.051Z,2.72
2017-12-11T11:43:09.625Z,5.45
2017-12-11T11:45:37.907Z,5.00
2017-12-11T11:48:06.170Z,2.30
2017-12-11T11:50:34.458Z,5.37
2017-12-11T11:53:02.722Z,4.30
2017-12-11T11:55:30.259Z,4.40
2017-12-11T11:57:57.756Z,3.47
2017-12-11T12:00:25.266Z,2.37
2017-12-11T12:02:52.778Z,4.12
2017-12-11T12:05:21.030Z,3.65
2017-12-11T12:07:48.542Z,3.50
2017-12-11T12:10:16.033Z,2.62
2017-12-11T12:12:43.547Z,5.30
2017-12-11T12:15:11.040Z,6.35
2017-12-11T12:17:38.566Z,4.30
2017-12-11T12:20:06.074Z,7.62
2017-12-11T12:22:33.595Z,4.72
2017-12-11T12:25:01.104Z,3.25
2017-12-11T12:27:28.654Z,5.05
2017-12-11T12:29:56.163Z,4.68
2017-12-11T12:32:23.697Z,5.35
2017-12-11T12:34:51.954Z,5.70
2017-12-11T12:37:19.478Z,5.05
2017-12-11T12:39:46.975Z,3.42
2017-12-11T12:42:14.490Z,7.93
2017-12-11T12:44:42.010Z,4.85
2017-12-11T12:47:10.292Z,6.50
2017-12-11T12:49:38.558Z,4.55
2017-12-11T12:52:06.833Z,5.37
2017-12-11T12:54:35.095Z,5.12
2017-12-11T12:57:02.595Z,5.50
2017-12-11T12:59:30.108Z,4.70
2017-12-11T13:01:57.602Z,4.47
2017-12-11T13:04:25.886Z,5.37
2017-12-11T13:06:53.406Z,4.65
2017-12-11T13:09:20.930Z,4.80
2017-12-11T13:11:48.444Z,5.18
2017-12-11T13:14:15.954Z,5.90
2017-12-11T13:16:43.467Z,6.20
2017-12-11T13:19:10.991Z,7.68
2017-12-11T13:21:38.529Z,8.15
2017-12-11T13:24:06.051Z,7.50
2017-12-11T13:26:33.543Z,8.18
2017-12-11T13:29:01.050Z,10.63
2017-12-11T13:31:29.315Z,8.73
2017-12-11T13:33:56.830Z,7.50
2017-12-11T13:36:24.319Z,9.35
2017-12-11T13:38:51.830Z,8.82
2017-12-11T13:41:19.321Z,4.70
2017-12-11T13:43:46.847Z,12.07
2017-12-11T13:46:14.354Z,10.35
2017-12-11T13:48:41.898Z,7.53
2017-12-11T13:51:09.389Z,10.70
2017-12-11T13:53:36.883Z,12.43
2017-12-11T13:56:04.426Z,11.63
2017-12-11T13:58:32.696Z,19.65
2017-12-11T14:01:00.995Z,18.60
2017-12-11T14:03:28.515Z,17.20
2017-12-11T14:05:56.048Z,17.35
2017-12-11T14:08:23.606Z,15.85
2017-12-11T14:10:51.135Z,11.73
2017-12-11T14:13:18.666Z,16.45
2017-12-11T14:15:46.402Z,19.98
2017-12-11T14:18:13.905Z,22.62
2017-12-11T14:20:42.265Z,18.05
2017-12-11T14:23:09.747Z,23.92
2017-12-11T14:25:37.287Z,13.20
2017-12-11T14:28:04.794Z,14.45
2017-12-11T14:30:32.315Z,15.15
2017-12-11T14:33:00.599Z,16.33
2017-12-11T14:35:28.133Z,13.40
2017-12-11T14:37:55.640Z,16.25
2017-12-11T14:40:23.161Z,12.23
2017-12-11T14:42:51.459Z,13.40
2017-12-11T14:45:18.979Z,10.98
2017-12-11T14:47:46.500Z,9.70
2017-12-11T14:50:14.008Z,13.75
2017-12-11T14:52:41.545Z,9.70
2017-12-11T14:55:09.039Z,8.35
2017-12-11T14:57:37.336Z,10.95
2017-12-11T15:00:04.830Z,4.87
2017-12-11T15:02:32.357Z,3.83
2017-12-11T15:04:59.850Z,4.40
2017-12-11T15:07:27.362Z,2.65
2017-12-11T15:09:55.642Z,2.05
2017-12-11T15:12:23.923Z,3.40
2017-12-11T15:14:51.418Z,1.60
2017-12-11T15:17:19.720Z,3.92
2017-12-11T15:19:47.206Z,3.25
2017-12-11T15:22:15.495Z,1.70
2017-12-11T15:24:43.000Z,1.40
2017-12-11T15:27:10.519Z,3.03
2017-12-11T15:29:38.011Z,3.17
2017-12-11T15:32:05.549Z,2.30
2017-12-11T15:34:33.071Z,4.70
2017-12-11T15:37:01.407Z,9.18
2017-12-11T15:39:28.947Z,7.40
2017-12-11T15:41:56.443Z,12.63
2017-12-11T15:44:37.999Z,8.88
2017-12-11T15:47:05.510Z,6.80
2017-12-11T15:49:33.027Z,11.77
2017-12-11T15:52:01.163Z,10.93
2017-12-11T15:54:29.457Z,6.07
2017-12-11T15:56:56.950Z,4.97
2017-12-11T15:59:24.470Z,4.55
2017-12-11T16:01:51.966Z,8.85
2017-12-11T16:04:19.502Z,10.50
2017-12-11T16:06:46.999Z,4.35
2017-12-11T16:09:14.564Z,9.02
2017-12-11T16:11:42.151Z,5.50
2017-12-11T16:14:10.426Z,4.22
2017-12-11T16:16:38.702Z,4.80
2017-12-11T16:19:06.222Z,5.82
2017-12-11T16:21:33.746Z,5.37
2017-12-11T16:24:01.295Z,6.68
2017-12-11T16:26:28.817Z,5.43
2017-12-11T16:28:56.330Z,6.28
2017-12-11T16:31:23.873Z,6.35
2017-12-11T16:33:51.459Z,8.65
2017-12-11T16:36:19.058Z,6.70
2017-12-11T16:38:46.566Z,8.75
2017-12-11T16:41:14.089Z,7.75
2017-12-11T16:43:42.346Z,6.22
2017-12-11T16:46:09.882Z,5.78
2017-12-11T16:48:37.378Z,6.28
2017-12-11T16:51:05.680Z,8.02
2017-12-11T16:53:33.227Z,5.40
2017-12-11T16:56:01.504Z,5.85
2017-12-11T16:58:29.783Z,7.32
2017-12-11T17:00:58.070Z,4.90
2017-12-11T17:03:25.561Z,7.00
2017-12-11T17:05:53.091Z,11.02
2017-12-11T17:08:20.587Z,5.68
2017-12-11T17:10:48.103Z,8.38
2017-12-11T17:13:15.626Z,7.30
2017-12-11T17:15:43.139Z,7.37
2017-12-11T17:18:10.642Z,4.55
2017-12-11T17:20:38.155Z,7.87
2017-12-11T17:23:05.659Z,6.57
2017-12-11T17:25:33.527Z,6.65
2017-12-11T17:28:01.055Z,5.45
2017-12-11T17:30:28.567Z,5.37
2017-12-11T17:32:56.827Z,4.00
2017-12-11T17:35:24.323Z,5.07
2017-12-11T17:37:51.849Z,3.97
2017-12-11T17:40:19.365Z,5.55
2017-12-11T17:42:46.888Z,9.00
2017-12-11T17:45:15.146Z,9.40
2017-12-11T17:47:42.674Z,6.03
2017-12-11T17:50:10.175Z,6.70
2017-12-11T17:52:38.446Z,5.95
2017-12-11T17:55:06.707Z,5.93
2017-12-11T17:57:34.233Z,6.30
2017-12-11T18:00:01.741Z,5.87
2017-12-11T18:02:30.056Z,6.50
2017-12-11T18:04:57.546Z,10.77
2017-12-11T18:07:25.061Z,9.63
2017-12-11T18:09:52.565Z,13.02
2017-12-11T18:12:20.088Z,11.93
2017-12-11T18:14:47.590Z,10.27
2017-12-11T18:17:15.086Z,16.05
2017-12-11T18:19:42.626Z,9.18
2017-12-11T18:22:10.141Z,11.05
2017-12-11T18:24:37.677Z,7.93
2017-12-11T18:27:05.166Z,7.37
2017-12-11T18:29:32.682Z,13.43
2017-12-11T18:32:00.952Z,7.35
2017-12-11T18:34:29.264Z,8.57
2017-12-11T18:36:56.770Z,8.88
2017-12-11T18:39:24.307Z,8.60
2017-12-11T18:41:51.855Z,6.70
2017-12-11T18:44:19.418Z,4.53
2017-12-11T18:46:46.912Z,5.80
2017-12-11T18:49:15.214Z,9.18
2017-12-11T18:51:43.517Z,3.97
2017-12-11T18:54:11.032Z,10.13
2017-12-11T18:56:38.559Z,4.75
2017-12-11T18:59:06.050Z,6.12
2017-12-11T19:01:34.330Z,4.90
2017-12-11T19:04:02.594Z,6.43
2017-12-11T19:06:30.107Z,5.47
2017-12-11T19:08:57.619Z,3.67
2017-12-11T19:11:25.126Z,3.22
2017-12-11T19:13:52.618Z,5.78
2017-12-11T19:16:20.152Z,3.40
2017-12-11T19:18:47.651Z,4.30
2017-12-11T19:21:15.158Z,6.75
2017-12-11T19:23:42.654Z,4.37
2017-12-11T19:26:10.171Z,3.65
2017-12-11T19:28:37.662Z,4.95
2017-12-11T19:31:05.179Z,5.12
2017-12-11T19:33:32.710Z,4.78
2017-12-11T19:36:00.986Z,4.55
2017-12-11T19:38:29.279Z,7.90
2017-12-11T19:40:57.568Z,5.78
2017-12-11T19:43:25.092Z,3.62
2017-12-11T19:45:52.601Z,7.07
2017-12-11T19:48:20.138Z,11.10
2017-12-11T19:50:47.638Z,4.80
2017-12-11T19:53:15.226Z,4.10
2017-12-11T19:55:42.723Z,4.97
2017-12-11T19:58:10.266Z,5.50
2017-12-11T20:00:38.528Z,3.92
2017-12-11T20:03:06.093Z,4.43
2017-12-11T20:05:34.363Z,3.70
2017-12-11T20:08:01.883Z,6.18
2017-12-11T20:10:29.399Z,5.50
2017-12-11T20:12:57.677Z,5.95
2017-12-11T20:15:25.278Z,4.07
2017-12-11T20:17:52.798Z,4.22
2017-12-11T20:20:20.450Z,9.10
2017-12-11T20:22:48.729Z,5.43
2017-12-11T20:25:17.005Z,8.05
2017-12-11T20:27:44.594Z,6.62
2017-12-11T20:30:12.091Z,5.30
2017-12-11T20:32:39.607Z,6.53
2017-12-11T20:35:07.126Z,5.65
2017-12-11T20:37:34.634Z,6.97
2017-12-11T20:40:02.145Z,5.80
2017-12-11T20:42:30.459Z,8.75
2017-12-11T20:44:58.108Z,5.93
2017-12-11T20:47:26.457Z,6.20
2017-12-11T20:49:53.973Z,5.60
2017-12-11T20:52:21.502Z,5.18
2017-12-11T20:54:49.082Z,5.50
2017-12-11T20:57:16.591Z,7.45
2017-12-11T20:59:44.125Z,5.25
2017-12-11T21:02:11.846Z,6.50
2017-12-11T21:04:40.126Z,5.85
2017-12-11T21:07:09.251Z,3.42
2017-12-11T21:09:36.779Z,5.82
2017-12-11T21:12:05.067Z,5.37
2017-12-11T21:14:32.718Z,4.55
2017-12-11T21:17:00.968Z,3.33
2017-12-11T21:19:28.586Z,2.62
2017-12-11T21:21:56.108Z,2.78
2017-12-11T21:24:24.387Z,2.45
2017-12-11T21:26:51.918Z,2.90
2017-12-11T21:29:19.452Z,2.47
2017-12-11T21:31:46.963Z,3.50
2017-12-11T21:34:15.232Z,2.58
2017-12-11T21:36:42.745Z,2.30
2017-12-11T21:39:10.287Z,2.37
2017-12-11T21:41:37.793Z,1.70
2017-12-11T21:44:05.323Z,2.95
2017-12-11T21:46:32.822Z,1.75
2017-12-11T21:49:00.335Z,1.65
2017-12-11T21:51:27.833Z,1.85
2017-12-11T21:53:55.333Z,2.87
2017-12-11T21:56:22.910Z,1.27
2017-12-11T21:58:50.410Z,1.60
2017-12-11T22:01:17.945Z,1.10
2017-12-11T22:03:45.434Z,1.20
2017-12-11T22:06:12.938Z,3.17
2017-12-11T22:08:40.443Z,1.58
2017-12-11T22:11:07.964Z,3.35
2017-12-11T22:13:35.459Z,5.03
2017-12-11T22:16:02.982Z,2.67
2017-12-11T22:18:30.489Z,0.90
2017-12-11T22:20:58.012Z,0.70
2017-12-11T22:23:25.528Z,0.70
2017-12-11T22:25:53.819Z,0.70
2017-12-11T22:28:21.338Z,0.65
2017-12-11T22:30:48.854Z,0.70
2017-12-11T22:33:16.346Z,0.50
2017-12-11T22:35:43.895Z,0.52
2017-12-11T22:38:11.382Z,1.17
2017-12-11T22:40:39.683Z,0.60
2017-12-11T22:43:07.962Z,0.73
2017-12-11T22:45:36.234Z,0.70
2017-12-11T22:48:04.494Z,0.82
2017-12-11T22:50:32.782Z,0.75
2017-12-11T22:53:01.036Z,0.60
2017-12-11T22:55:28.522Z,0.95
2017-12-11T22:57:56.799Z,1.02
2017-12-11T23:00:29.670Z,2.83
2017-12-11T23:02:57.950Z,0.60
2017-12-11T23:05:26.214Z,0.80
2017-12-11T23:07:53.730Z,0.50
2017-12-11T23:10:21.217Z,0.90
2017-12-11T23:12:48.718Z,0.62
2017-12-11T23:15:16.229Z,0.50
2017-12-11T23:17:43.746Z,2.05
2017-12-11T23:20:11.229Z,6.43
2017-12-11T23:22:38.742Z,0.50
2017-12-11T23:25:07.019Z,0.50
2017-12-11T23:27:34.547Z,0.50
2017-12-11T23:30:02.046Z,0.50
2017-12-11T23:32:29.566Z,0.50
2017-12-11T23:34:57.080Z,1.10
2017-12-11T23:37:24.597Z,3.75
2017-12-11T23:39:52.090Z,0.50
2017-12-11T23:42:19.627Z,0.50
2017-12-11T23:44:47.921Z,0.40
2017-12-11T23:47:16.199Z,1.95
2017-12-11T23:49:44.474Z,0.45
2017-12-11T23:52:12.767Z,1.02
2017-12-11T23:54:40.271Z,1.45
2017-12-11T23:57:08.482Z,0.52
2017-12-11T23:59:36.022Z,0.65
